createdAt,value
2022-11-10T00:01:21.153Z,4.10
2022-11-10T00:03:50.607Z,3.90
2022-11-10T00:06:19.345Z,4.10
2022-11-10T00:08:48.093Z,3.70
2022-11-10T00:11:18.555Z,3.53
2022-11-10T00:14:07.455Z,3.70
2022-11-10T00:16:53.916Z,3.60
2022-11-10T00:19:23.213Z,3.50
2022-11-10T00:21:52.049Z,3.80
2022-11-10T00:24:21.020Z,3.20
2022-11-10T00:26:54.544Z,3.53
2022-11-10T00:29:23.800Z,3.87
2022-11-10T00:31:52.845Z,3.33
2022-11-10T00:34:21.619Z,3.80
2022-11-10T00:36:50.121Z,2.90
2022-11-10T00:39:18.925Z,3.30
2022-11-10T00:41:48.365Z,4.90
2022-11-10T00:44:18.729Z,8.33
2022-11-10T00:46:48.004Z,4.87
2022-11-10T00:49:19.710Z,7.30
2022-11-10T00:51:48.794Z,3.77
2022-11-10T00:54:17.492Z,4.13
2022-11-10T00:56:46.480Z,3.53
2022-11-10T00:59:15.684Z,4.57
2022-11-10T01:01:45.616Z,4.63
2022-11-10T01:04:14.735Z,4.63
2022-11-10T01:06:44.308Z,4.43
2022-11-10T01:09:12.976Z,4.20
2022-11-10T01:11:42.182Z,3.40
2022-11-10T01:14:10.784Z,4.40
2022-11-10T01:16:39.681Z,3.87
2022-11-10T01:19:10.015Z,4.07
2022-11-10T01:21:38.808Z,4.37
2022-11-10T01:24:08.370Z,4.70
2022-11-10T01:26:37.467Z,4.57
2022-11-10T01:29:06.455Z,4.90
2022-11-10T01:31:35.296Z,4.53
2022-11-10T01:34:04.244Z,4.23
2022-11-10T01:36:34.479Z,4.60
2022-11-10T01:39:03.198Z,4.57
2022-11-10T01:41:32.458Z,4.40
2022-11-10T01:44:22.137Z,4.37
2022-11-10T01:46:51.296Z,4.37
2022-11-10T01:49:26.131Z,4.37
2022-11-10T01:51:59.832Z,4.47
2022-11-10T01:54:32.048Z,4.27
2022-11-10T01:57:05.509Z,4.67
2022-11-10T01:59:37.131Z,4.40
2022-11-10T02:02:11.590Z,5.00
2022-11-10T02:04:43.112Z,4.70
2022-11-10T02:07:14.292Z,4.47
2022-11-10T02:09:43.237Z,4.93
2022-11-10T02:12:12.630Z,4.87
2022-11-10T02:14:41.278Z,5.13
2022-11-10T02:17:11.188Z,5.17
2022-11-10T02:19:43.130Z,5.07
2022-11-10T02:22:13.119Z,4.80
2022-11-10T02:24:41.600Z,4.83
2022-11-10T02:27:10.280Z,4.87
2022-11-10T02:29:39.210Z,5.00
2022-11-10T02:32:08.511Z,4.27
2022-11-10T02:34:37.263Z,4.23
2022-11-10T02:37:05.933Z,5.10
2022-11-10T02:39:36.454Z,5.20
2022-11-10T02:42:10.561Z,4.60
2022-11-10T02:44:39.529Z,4.80
2022-11-10T02:47:08.472Z,4.60
2022-11-10T02:49:37.157Z,4.87
2022-11-10T02:52:06.456Z,4.90
2022-11-10T02:54:36.672Z,3.87
2022-11-10T02:57:05.949Z,4.80
2022-11-10T02:59:34.509Z,4.80
2022-11-10T03:02:03.434Z,4.60
2022-11-10T03:04:32.042Z,4.37
2022-11-10T03:07:01.533Z,4.53
2022-11-10T03:09:30.359Z,5.17
2022-11-10T03:12:00.875Z,4.60
2022-11-10T03:14:29.632Z,4.47
2022-11-10T03:16:58.573Z,5.03
2022-11-10T03:19:27.344Z,5.03
2022-11-10T03:21:56.569Z,4.43
2022-11-10T03:24:25.558Z,4.77
2022-11-10T03:26:54.603Z,5.17
2022-11-10T03:29:25.167Z,4.77
2022-11-10T03:31:54.157Z,4.30
2022-11-10T03:34:22.980Z,5.63
2022-11-10T03:36:52.312Z,4.73
2022-11-10T03:39:21.263Z,5.70
2022-11-10T03:41:50.113Z,3.67
2022-11-10T03:44:18.626Z,5.43
2022-11-10T03:46:51.588Z,5.17
2022-11-10T03:49:20.518Z,4.20
2022-11-10T03:51:49.868Z,4.17
2022-11-10T03:54:18.699Z,4.77
2022-11-10T03:56:47.561Z,5.20
2022-11-10T03:59:16.220Z,4.70
2022-11-10T04:01:45.750Z,3.93
2022-11-10T04:04:29.760Z,5.23
2022-11-10T04:07:16.109Z,5.03
2022-11-10T04:09:44.859Z,4.83
2022-11-10T04:12:30.994Z,4.63
2022-11-10T04:15:17.832Z,4.43
2022-11-10T04:17:51.211Z,4.77
2022-11-10T04:20:21.432Z,4.17
2022-11-10T04:23:07.836Z,16.17
2022-11-10T04:25:56.843Z,4.70
2022-11-10T04:28:25.977Z,5.17
2022-11-10T04:30:55.159Z,4.80
2022-11-10T04:33:24.490Z,5.03
2022-11-10T04:35:54.512Z,4.63
2022-11-10T04:38:24.089Z,4.50
2022-11-10T04:40:53.561Z,5.47
2022-11-10T04:43:23.228Z,5.30
2022-11-10T04:45:52.867Z,4.87
2022-11-10T04:48:21.853Z,4.30
2022-11-10T04:50:50.822Z,4.30
2022-11-10T04:53:22.781Z,5.27
2022-11-10T04:55:51.855Z,5.17
2022-11-10T04:58:20.405Z,4.53
2022-11-10T05:00:49.734Z,4.67
2022-11-10T05:03:19.102Z,4.70
2022-11-10T05:05:49.362Z,6.10
2022-11-10T05:08:17.858Z,5.23
2022-11-10T05:10:48.181Z,5.47
2022-11-10T05:13:17.199Z,4.87
2022-11-10T05:15:47.279Z,5.07
2022-11-10T05:18:16.213Z,5.53
2022-11-10T05:20:45.199Z,5.20
2022-11-10T05:23:31.560Z,4.80
2022-11-10T05:26:01.820Z,4.73
2022-11-10T05:28:31.232Z,5.13
2022-11-10T05:31:00.090Z,4.93
2022-11-10T05:33:28.730Z,4.90
2022-11-10T05:35:57.342Z,5.00
2022-11-10T05:38:27.028Z,5.00
2022-11-10T05:40:55.916Z,5.33
2022-11-10T05:43:27.044Z,5.83
2022-11-10T05:45:56.284Z,4.97
2022-11-10T05:48:25.211Z,5.70
2022-11-10T05:50:53.808Z,5.97
2022-11-10T05:53:23.332Z,5.73
2022-11-10T05:55:52.684Z,5.63
2022-11-10T05:58:21.244Z,6.03
2022-11-10T06:00:51.572Z,6.57
2022-11-10T06:03:21.711Z,6.10
2022-11-10T06:05:51.230Z,5.10
2022-11-10T06:08:21.322Z,5.63
2022-11-10T06:10:50.335Z,5.40
2022-11-10T06:13:19.542Z,5.13
2022-11-10T06:15:50.578Z,4.93
2022-11-10T06:18:21.309Z,5.57
2022-11-10T06:20:50.346Z,4.60
2022-11-10T06:23:19.707Z,4.80
2022-11-10T06:25:49.051Z,4.97
2022-11-10T06:28:17.620Z,5.00
2022-11-10T06:30:46.644Z,5.50
2022-11-10T06:33:15.351Z,5.07
2022-11-10T06:35:47.533Z,5.00
2022-11-10T06:38:16.804Z,4.93
2022-11-10T06:40:46.037Z,5.07
2022-11-10T06:43:14.709Z,4.97
2022-11-10T06:45:43.417Z,5.47
2022-11-10T06:48:14.698Z,5.27
2022-11-10T06:50:45.335Z,6.77
2022-11-10T06:53:14.315Z,6.73
2022-11-10T06:55:42.973Z,7.97
2022-11-10T06:58:11.821Z,10.10
2022-11-10T07:00:40.486Z,9.50
2022-11-10T07:03:13.729Z,10.00
2022-11-10T07:05:42.810Z,8.80
2022-11-10T07:08:16.265Z,7.97
2022-11-10T07:10:45.539Z,6.53
2022-11-10T07:13:14.424Z,6.40
2022-11-10T07:15:43.528Z,7.10
2022-11-10T07:18:12.693Z,6.60
2022-11-10T07:20:42.274Z,7.60
2022-11-10T07:23:12.608Z,7.13
2022-11-10T07:25:41.844Z,7.53
2022-11-10T07:28:11.829Z,6.73
2022-11-10T07:30:42.064Z,6.13
2022-11-10T07:33:13.717Z,7.07
2022-11-10T07:35:43.781Z,6.43
2022-11-10T07:38:15.630Z,5.90
2022-11-10T07:40:47.286Z,6.00
2022-11-10T07:43:16.739Z,5.87
2022-11-10T07:45:45.348Z,5.40
2022-11-10T07:48:14.729Z,6.00
2022-11-10T07:50:44.049Z,5.63
2022-11-10T07:53:15.582Z,5.80
2022-11-10T07:55:45.945Z,6.10
2022-11-10T07:58:17.599Z,5.87
2022-11-10T08:00:48.169Z,5.00
2022-11-10T08:03:19.403Z,6.37
2022-11-10T08:05:49.154Z,6.90
2022-11-10T08:08:20.383Z,5.83
2022-11-10T08:10:49.684Z,6.30
2022-11-10T08:13:19.076Z,6.17
2022-11-10T08:15:48.312Z,5.53
2022-11-10T08:18:20.237Z,5.77
2022-11-10T08:20:50.364Z,5.77
2022-11-10T08:23:21.010Z,11.03
2022-11-10T08:25:53.298Z,15.27
2022-11-10T08:28:22.672Z,13.37
2022-11-10T08:30:52.466Z,8.10
2022-11-10T08:33:23.263Z,6.03
2022-11-10T08:35:53.707Z,5.67
2022-11-10T08:38:25.973Z,6.37
2022-11-10T08:40:57.215Z,5.70
2022-11-10T08:43:26.949Z,5.50
2022-11-10T08:45:57.725Z,5.47
2022-11-10T08:48:26.469Z,4.63
2022-11-10T08:50:55.382Z,5.03
2022-11-10T08:53:26.434Z,5.50
2022-11-10T08:55:59.503Z,5.10
2022-11-10T08:58:28.371Z,5.33
2022-11-10T09:00:58.041Z,5.13
2022-11-10T09:03:27.034Z,5.37
2022-11-10T09:05:58.504Z,5.13
2022-11-10T09:08:28.947Z,5.53
2022-11-10T09:10:57.869Z,4.77
2022-11-10T09:13:30.263Z,4.23
2022-11-10T09:16:01.909Z,4.50
2022-11-10T09:18:31.674Z,4.67
2022-11-10T09:21:00.868Z,4.50
2022-11-10T09:23:31.068Z,3.87
2022-11-10T09:25:59.721Z,4.50
2022-11-10T09:28:28.252Z,5.20
2022-11-10T09:30:57.023Z,4.13
2022-11-10T09:33:26.063Z,4.23
2022-11-10T09:36:00.196Z,3.97
2022-11-10T09:38:30.619Z,4.43
2022-11-10T09:41:03.649Z,4.07
2022-11-10T09:43:39.338Z,4.13
2022-11-10T09:46:15.653Z,4.63
2022-11-10T09:48:51.357Z,3.87
2022-11-10T09:51:25.334Z,4.67
2022-11-10T09:53:58.953Z,5.60
2022-11-10T09:56:35.718Z,6.67
2022-11-10T09:59:13.099Z,4.93
2022-11-10T10:01:50.268Z,4.73
2022-11-10T10:04:51.469Z,5.90
2022-11-10T10:07:27.799Z,5.00
2022-11-10T10:10:04.190Z,5.00
2022-11-10T10:13:07.705Z,5.27
2022-11-10T10:15:45.706Z,5.00
2022-11-10T10:18:27.185Z,5.97
2022-11-10T10:21:12.022Z,5.20
2022-11-10T10:24:08.500Z,4.50
2022-11-10T10:26:41.325Z,4.47
2022-11-10T10:29:12.325Z,4.03
2022-11-10T10:31:43.867Z,4.13
2022-11-10T10:34:16.652Z,4.40
2022-11-10T10:36:45.833Z,4.70
2022-11-10T10:39:17.715Z,3.80
2022-11-10T10:41:48.175Z,3.80
2022-11-10T10:44:18.874Z,3.60
2022-11-10T10:46:50.262Z,3.80
2022-11-10T10:49:28.567Z,3.90
2022-11-10T10:52:07.605Z,3.50
2022-11-10T10:54:38.307Z,4.13
2022-11-10T10:57:23.162Z,4.07
2022-11-10T10:59:52.358Z,4.03
2022-11-10T11:02:27.610Z,3.40
2022-11-10T11:05:17.911Z,3.13
2022-11-10T11:07:57.533Z,3.73
2022-11-10T11:10:28.901Z,4.43
2022-11-10T11:13:15.504Z,3.30
2022-11-10T11:15:44.666Z,5.30
2022-11-10T11:18:16.666Z,3.70
2022-11-10T11:20:54.250Z,3.87
2022-11-10T11:23:43.963Z,3.90
2022-11-10T11:26:23.923Z,3.27
2022-11-10T11:29:04.692Z,3.70
2022-11-10T11:31:43.380Z,3.63
2022-11-10T11:34:18.935Z,3.37
2022-11-10T11:36:57.288Z,3.13
2022-11-10T11:39:38.162Z,5.20
2022-11-10T11:42:15.859Z,10.13
2022-11-10T11:45:02.051Z,11.27
2022-11-10T11:47:46.048Z,3.83
2022-11-10T11:50:25.809Z,3.83
2022-11-10T11:53:07.009Z,3.70
2022-11-10T11:56:02.231Z,4.47
2022-11-10T11:58:45.434Z,4.33
2022-11-10T12:01:32.834Z,4.07
2022-11-10T12:04:40.147Z,4.80
2022-11-10T12:07:24.013Z,3.60
2022-11-10T12:10:00.788Z,3.23
2022-11-10T12:12:51.518Z,3.27
2022-11-10T12:15:31.423Z,3.00
2022-11-10T12:18:11.463Z,3.73
2022-11-10T12:20:52.777Z,3.53
2022-11-10T12:23:35.926Z,3.00
2022-11-10T12:26:15.210Z,2.67
2022-11-10T12:28:49.029Z,3.50
2022-11-10T12:31:22.141Z,3.40
2022-11-10T12:33:58.539Z,2.07
2022-11-10T12:36:31.062Z,2.50
2022-11-10T12:39:03.515Z,2.67
2022-11-10T12:41:40.260Z,2.47
2022-11-10T12:44:20.967Z,2.17
2022-11-10T12:46:55.677Z,3.17
2022-11-10T12:49:32.340Z,3.20
2022-11-10T12:52:08.391Z,2.43
2022-11-10T12:54:38.721Z,3.03
2022-11-10T12:57:13.360Z,2.37
2022-11-10T12:59:44.367Z,2.30
2022-11-10T13:02:26.918Z,3.27
2022-11-10T13:05:22.896Z,2.93
2022-11-10T13:07:53.271Z,3.00
2022-11-10T13:10:29.554Z,3.00
2022-11-10T13:13:02.837Z,3.10
2022-11-10T13:15:52.484Z,3.97
2022-11-10T13:18:42.868Z,3.27
2022-11-10T13:21:12.967Z,3.40
2022-11-10T13:24:21.047Z,3.17
2022-11-10T13:26:53.685Z,3.73
2022-11-10T13:29:32.373Z,3.47
2022-11-10T13:32:01.964Z,2.57
2022-11-10T13:34:36.144Z,2.90
2022-11-10T13:37:47.280Z,3.27
2022-11-10T13:40:36.252Z,2.50
2022-11-10T13:43:25.456Z,2.83
2022-11-10T13:46:09.718Z,3.00
2022-11-10T13:49:15.613Z,2.37
2022-11-10T13:51:56.458Z,2.10
2022-11-10T13:54:49.950Z,2.03
2022-11-10T13:57:27.742Z,2.07
2022-11-10T13:59:59.496Z,3.07
2022-11-10T14:03:02.884Z,2.27
2022-11-10T14:06:04.718Z,1.93
2022-11-10T14:08:42.818Z,1.63
2022-11-10T14:11:24.466Z,1.70
2022-11-10T14:14:04.653Z,1.90
2022-11-10T14:16:40.907Z,2.20
2022-11-10T14:19:26.407Z,2.27
2022-11-10T14:21:58.902Z,2.00
2022-11-10T14:24:30.475Z,2.10
2022-11-10T14:27:07.612Z,2.10
2022-11-10T14:29:40.503Z,2.37
2022-11-10T14:32:18.049Z,1.90
2022-11-10T14:34:50.400Z,2.23
2022-11-10T14:37:25.073Z,1.93
2022-11-10T14:39:57.407Z,2.00
2022-11-10T14:42:32.345Z,2.10
2022-11-10T14:45:19.136Z,1.87
2022-11-10T14:47:54.614Z,2.20
2022-11-10T14:50:26.902Z,2.10
2022-11-10T14:52:59.738Z,1.87
2022-11-10T14:55:33.760Z,1.90
2022-11-10T14:58:10.196Z,2.17
2022-11-10T15:00:41.772Z,1.67
2022-11-10T15:03:18.945Z,1.63
2022-11-10T15:05:52.751Z,1.80
2022-11-10T15:08:22.552Z,1.73
2022-11-10T15:10:59.062Z,1.93
2022-11-10T15:13:40.575Z,1.70
2022-11-10T15:16:30.999Z,2.10
2022-11-10T15:19:23.160Z,1.90
2022-11-10T15:21:53.152Z,2.20
2022-11-10T15:24:24.959Z,2.53
2022-11-10T15:26:54.400Z,2.30
2022-11-10T17:50:43.639Z,2.67
2022-11-10T17:53:20.698Z,3.00
2022-11-10T17:55:50.454Z,3.50
2022-11-10T17:58:20.344Z,3.13
2022-11-10T18:00:50.397Z,3.07
2022-11-10T18:03:23.110Z,2.90
2022-11-10T18:05:54.383Z,2.63
2022-11-10T18:08:24.089Z,3.33
2022-11-10T18:10:58.153Z,4.40
2022-11-10T18:13:27.550Z,6.30
2022-11-10T18:16:04.958Z,10.70
2022-11-10T18:18:34.348Z,12.27
2022-11-10T18:21:09.872Z,22.40
2022-11-10T18:23:39.396Z,14.40
2022-11-10T18:26:14.044Z,7.17
2022-11-10T18:28:46.789Z,5.10
2022-11-10T18:31:22.635Z,2.77
2022-11-10T18:33:55.094Z,2.47
2022-11-10T18:36:26.403Z,2.63
2022-11-10T18:38:56.153Z,2.73
2022-11-10T18:41:51.776Z,2.43
2022-11-10T18:44:22.219Z,2.67
2022-11-10T18:46:51.894Z,2.47
2022-11-10T18:49:22.195Z,2.10
2022-11-10T18:51:53.221Z,2.57
2022-11-10T18:54:23.047Z,2.60
2022-11-10T18:57:00.625Z,2.60
2022-11-10T18:59:29.980Z,2.40
2022-11-10T19:01:58.974Z,2.43
2022-11-10T19:04:28.741Z,2.50
2022-11-10T19:06:59.834Z,2.80
2022-11-10T19:09:32.176Z,2.67
2022-11-10T19:12:03.433Z,2.53
2022-11-10T19:14:36.175Z,2.60
2022-11-10T19:17:05.925Z,3.23
2022-11-10T19:19:35.962Z,3.17
2022-11-10T19:22:07.502Z,3.60
2022-11-10T19:24:53.801Z,2.87
2022-11-10T19:27:25.845Z,2.87
2022-11-10T19:29:55.753Z,2.97
2022-11-10T19:32:25.366Z,3.03
2022-11-10T19:34:54.712Z,3.13
2022-11-10T19:37:34.206Z,3.30
2022-11-10T19:40:07.547Z,3.00
2022-11-10T19:42:37.139Z,2.53
2022-11-10T19:45:09.841Z,3.67
2022-11-10T19:47:40.137Z,3.40
2022-11-10T19:50:14.010Z,3.10
2022-11-10T19:52:45.673Z,2.50
2022-11-10T19:55:16.624Z,2.70
2022-11-10T19:57:45.966Z,2.80
2022-11-10T20:00:17.374Z,2.80
2022-11-10T20:02:47.851Z,3.23
2022-11-10T20:05:17.730Z,3.83
2022-11-10T20:08:09.733Z,3.30
2022-11-10T20:10:40.342Z,2.93
2022-11-10T20:13:10.246Z,3.60
2022-11-10T20:15:42.234Z,2.97
2022-11-10T20:18:12.648Z,3.40
2022-11-10T20:20:43.562Z,3.43
2022-11-10T20:23:16.030Z,3.13
2022-11-10T20:25:46.421Z,3.23
2022-11-10T20:28:19.306Z,3.50
2022-11-10T20:30:49.456Z,3.20
2022-11-10T20:33:18.606Z,3.50
2022-11-10T20:35:50.694Z,3.60
2022-11-10T20:38:21.838Z,3.10
2022-11-10T20:41:04.497Z,3.70
2022-11-10T20:43:36.393Z,3.47
2022-11-10T20:46:06.448Z,3.60
2022-11-10T20:48:36.445Z,3.40
2022-11-10T20:51:12.313Z,3.40
2022-11-10T20:53:43.473Z,3.23
2022-11-10T20:56:15.074Z,3.57
2022-11-10T20:58:45.391Z,3.27
2022-11-10T21:01:15.841Z,3.00
2022-11-10T21:03:45.251Z,3.10
2022-11-10T21:06:14.727Z,3.27
2022-11-10T21:08:45.890Z,3.20
2022-11-10T21:11:34.906Z,14.43
2022-11-10T21:14:05.616Z,18.77
2022-11-10T21:16:35.201Z,17.53
2022-11-10T21:19:04.662Z,6.93
2022-11-10T21:21:38.592Z,7.53
2022-11-10T21:24:11.310Z,8.37
2022-11-10T21:26:41.851Z,5.40
2022-11-10T21:29:11.932Z,3.33
2022-11-10T21:31:42.309Z,3.50
2022-11-10T21:34:12.094Z,3.40
2022-11-10T21:36:41.864Z,3.60
2022-11-10T21:39:12.555Z,3.10
2022-11-10T21:41:42.689Z,2.70
2022-11-10T21:44:12.075Z,2.90
2022-11-10T21:46:41.307Z,2.80
2022-11-10T21:49:10.296Z,3.43
2022-11-10T21:51:39.510Z,3.50
2022-11-10T21:54:10.808Z,3.33
2022-11-10T21:56:41.900Z,3.20
2022-11-10T21:59:10.674Z,6.30
2022-11-10T22:01:40.421Z,7.57
2022-11-10T22:04:10.051Z,7.03
2022-11-10T22:06:57.034Z,4.97
2022-11-10T22:09:39.701Z,4.63
2022-11-10T22:12:32.439Z,4.10
2022-11-10T22:15:20.847Z,3.40
2022-11-10T22:18:07.462Z,3.53
2022-11-10T22:20:36.687Z,3.73
2022-11-10T22:23:05.862Z,8.83
2022-11-10T22:25:35.095Z,8.87
2022-11-10T22:28:06.454Z,7.43
2022-11-10T22:30:38.151Z,9.43
2022-11-10T22:33:21.522Z,6.00
2022-11-10T22:35:58.347Z,4.10
2022-11-10T22:38:27.435Z,3.83
2022-11-10T22:41:16.472Z,3.60
2022-11-10T22:44:05.197Z,3.80
2022-11-10T22:46:37.187Z,4.50
2022-11-10T22:49:09.114Z,4.20
2022-11-10T22:51:40.300Z,3.67
2022-11-10T22:54:12.598Z,3.63
2022-11-10T22:56:42.990Z,3.90
2022-11-10T22:59:14.765Z,4.00
2022-11-10T23:01:45.928Z,4.00
2022-11-10T23:04:16.210Z,3.80
2022-11-10T23:06:45.898Z,3.20
2022-11-10T23:09:15.057Z,3.20
2022-11-10T23:11:44.204Z,3.50
2022-11-10T23:14:15.512Z,3.33
2022-11-10T23:16:44.746Z,3.97
2022-11-10T23:19:13.940Z,3.60
2022-11-10T23:21:42.732Z,3.43
2022-11-10T23:24:13.640Z,4.57
2022-11-10T23:26:42.711Z,4.03
2022-11-10T23:29:11.307Z,3.90
2022-11-10T23:31:42.368Z,4.40
2022-11-10T23:34:11.219Z,4.37
2022-11-10T23:36:40.094Z,4.67
2022-11-10T23:39:09.173Z,10.17
2022-11-10T23:41:38.557Z,13.53
2022-11-10T23:44:08.018Z,11.73
2022-11-10T23:46:37.581Z,12.83
2022-11-10T23:49:08.410Z,13.13
2022-11-10T23:51:37.674Z,9.30
2022-11-10T23:54:06.973Z,18.20
2022-11-10T23:56:36.159Z,45.47
2022-11-10T23:59:05.709Z,32.40
